Adelandia, Brazil
Current Conditions -  °F | °C
As of 4:00 PM on Thursday 18 Dec 2014 (Local Time) from SBGO Reporting Station
Scattered Clouds Scattered Clouds  
Wind Chill: 81°   Ceiling: Unl
Heat Index: 82°   Visibility: 6mi
Dew Point: 63°   Wind: 10mph
Humidity: 54%   Direction: 10°N
Pressure: 29.85"   Gusts: NA
Location:  16.42°S, 50.17°W
Report Text: SBGO 181800Z 01009KT 9999 FEW017 SCT036 FEW040TCU 27/17 Q1011
Loading
Personal Weather Stations






























Interactive Weather Map New forecast layout! Learn more

10-Day Weather Forecast

Advertisements
Track Severe Weather on mobile